Time;durP1;ratioP1;P1;durP2;ratioP2;P2;SDS_P1;SDS_P2;PMS_P1;PMS_P2;Temp;Humidity;BMP_temperature;BMP_pressure;BME280_temperature;BME280_humidity;BME280_pressure;Samples;Min_cycle;Max_cycle;Signal;HPM_P1;HPM_P2
2022/06/21 00:01:12;;;;;;;10.40;3.83;;;;;;;12.21;73.25;100372.59;5082365;27;20526;-59
2022/06/21 00:03:39;;;;;;;4.07;3.27;;;;;;;12.18;73.52;100380.91;5088140;28;20466;-60
2022/06/21 00:06:06;;;;;;;7.50;3.50;;;;;;;12.14;73.83;100379.53;5102148;27;20458;-60
2022/06/21 00:08:35;;;;;;;6.03;3.37;;;;;;;12.09;73.70;100379.13;5100977;28;20483;-60
2022/06/21 00:11:02;;;;;;;6.20;3.40;;;;;;;11.97;74.37;100383.00;5097568;28;20475;-60
2022/06/21 00:13:33;;;;;;;4.80;3.50;;;;;;;12.10;74.10;100383.50;5102681;28;20966;-61
2022/06/21 00:16:01;;;;;;;6.47;3.47;;;;;;;12.04;74.05;100386.75;5098150;27;20501;-60
2022/06/21 00:18:30;;;;;;;3.27;2.97;;;;;;;11.99;74.28;100383.69;5102358;28;20505;-59
2022/06/21 00:20:58;;;;;;;5.73;3.33;;;;;;;11.73;75.10;100394.16;5102011;28;20515;-60
2022/06/21 00:23:28;;;;;;;9.27;3.30;;;;;;;11.43;76.42;100393.38;5102555;28;20471;-60
2022/06/21 00:25:56;;;;;;;6.73;4.13;;;;;;;11.39;77.11;100400.84;5101443;28;20483;-60
2022/06/21 00:28:23;;;;;;;11.13;3.43;;;;;;;11.65;76.70;100398.41;5102192;28;20487;-60
2022/06/21 00:30:53;;;;;;;9.87;3.70;;;;;;;11.68;76.08;100394.59;5101051;28;20523;-60
2022/06/21 00:33:22;;;;;;;5.50;3.87;;;;;;;11.67;76.56;100391.06;5101191;28;20455;-60
2022/06/21 00:35:51;;;;;;;9.20;3.70;;;;;;;11.60;76.46;100383.78;5101478;28;20958;-61
2022/06/21 00:38:23;;;;;;;7.70;4.70;;;;;;;11.55;76.77;100378.84;5101990;28;20469;-60
2022/06/21 00:40:49;;;;;;;4.20;3.30;;;;;;;11.57;77.00;100379.53;5101300;27;20486;-60
2022/06/21 00:43:19;;;;;;;7.47;3.53;;;;;;;11.49;76.56;100387.44;5102078;28;20463;-60
2022/06/21 00:45:47;;;;;;;7.27;4.37;;;;;;;11.25;77.73;100391.41;5100627;27;20512;-59
2022/06/21 00:48:20;;;;;;;6.90;3.83;;;;;;;11.10;78.58;100399.00;5099445;28;20466;-59
2022/06/21 00:50:49;;;;;;;4.70;3.87;;;;;;;11.19;78.76;100383.09;5101460;27;20502;-60
2022/06/21 00:53:19;;;;;;;8.03;3.57;;;;;;;11.25;78.13;100375.34;5099503;28;20806;-60
2022/06/21 00:55:50;;;;;;;7.80;3.50;;;;;;;11.19;78.82;100367.88;5100297;28;20538;-59
2022/06/21 00:58:19;;;;;;;8.93;4.37;;;;;;;11.24;78.27;100370.97;5101548;28;20565;-60
2022/06/21 01:00:58;;;;;;;9.10;4.00;;;;;;;11.18;77.81;100386.75;5099931;28;20479;-59
2022/06/21 01:03:28;;;;;;;13.70;4.83;;;;;;;10.97;78.72;100392.25;5087847;28;20510;-59
2022/06/21 01:05:56;;;;;;;11.40;4.20;;;;;;;10.77;79.88;100391.38;5100675;27;20475;-60
2022/06/21 01:08:26;;;;;;;8.17;3.93;;;;;;;10.77;80.60;100383.38;5099539;28;20649;-60
2022/06/21 01:10:56;;;;;;;6.83;4.20;;;;;;;10.86;80.31;100385.19;5096969;27;20518;-60
2022/06/21 01:13:25;;;;;;;8.07;4.20;;;;;;;10.95;80.00;100391.53;5081244;28;20464;-60
2022/06/21 01:15:54;;;;;;;7.37;4.33;;;;;;;10.94;79.40;100393.38;5094297;27;20473;-59
2022/06/21 01:18:22;;;;;;;6.67;4.50;;;;;;;10.95;79.40;100383.50;5099023;28;21587;-59
2022/06/21 01:20:53;;;;;;;4.73;3.63;;;;;;;11.02;79.59;100385.47;5097528;27;20473;-59
2022/06/21 01:23:39;;;;;;;7.90;4.10;;;;;;;11.02;79.34;100380.13;5081992;28;20500;-59
2022/06/21 01:26:19;;;;;;;10.53;4.20;;;;;;;10.94;78.96;100377.31;5087658;28;20517;-59
2022/06/21 01:28:48;;;;;;;5.70;4.10;;;;;;;10.87;78.97;100376.19;5099935;28;20482;-60
2022/06/21 01:31:15;;;;;;;8.63;3.87;;;;;;;10.85;79.50;100368.31;5094577;28;21233;-59
2022/06/21 01:33:43;;;;;;;9.83;4.43;;;;;;;10.82;80.06;100373.94;5088718;28;20497;-59
2022/06/21 01:36:13;;;;;;;5.10;3.90;;;;;;;10.85;79.72;100379.00;5097265;28;21018;-59
2022/06/21 01:38:42;;;;;;;11.27;5.10;;;;;;;10.83;79.66;100374.78;5090328;28;20455;-59
2022/06/21 01:41:12;;;;;;;4.47;4.00;;;;;;;10.82;79.40;100370.41;5088653;28;20491;-59
2022/06/21 01:43:41;;;;;;;6.10;3.90;;;;;;;10.73;79.24;100369.44;5100290;28;20553;-61
2022/06/21 01:46:12;;;;;;;7.47;4.37;;;;;;;10.63;79.52;100373.91;5089280;28;20472;-60
2022/06/21 01:48:41;;;;;;;8.50;4.30;;;;;;;10.56;80.11;100370.94;5079859;28;20532;-60
2022/06/21 01:51:12;;;;;;;5.87;4.70;;;;;;;10.47;80.10;100367.25;5082860;27;20472;-59
2022/06/21 01:53:40;;;;;;;6.03;4.43;;;;;;;10.43;80.40;100362.31;5081144;28;20436;-60
2022/06/21 01:56:09;;;;;;;5.80;4.40;;;;;;;10.44;80.35;100364.03;5088130;28;20486;-59
2022/06/21 01:58:41;;;;;;;8.03;4.33;;;;;;;10.41;80.72;100354.44;5100204;28;20484;-59
2022/06/21 02:01:14;;;;;;;5.60;4.27;;;;;;;10.42;80.50;100350.78;5099083;28;20467;-59
2022/06/21 02:03:41;;;;;;;8.43;4.63;;;;;;;10.37;80.32;100358.38;5099852;28;20467;-60
2022/06/21 02:06:10;;;;;;;6.27;4.53;;;;;;;10.35;80.58;100360.34;5099592;28;20505;-59
2022/06/21 02:08:41;;;;;;;10.63;5.10;;;;;;;10.11;81.83;100366.00;5098276;28;20451;-59
2022/06/21 02:11:13;;;;;;;6.97;4.80;;;;;;;9.95;83.35;100371.84;5089669;27;20480;-59
2022/06/21 02:13:43;;;;;;;10.13;5.40;;;;;;;10.10;83.48;100373.16;5079698;28;20462;-59
2022/06/21 02:16:16;;;;;;;7.53;5.17;;;;;;;10.26;82.82;100363.78;5091553;27;20498;-59
2022/06/21 02:18:46;;;;;;;6.93;4.93;;;;;;;10.37;82.34;100374.41;5088166;28;20456;-59
2022/06/21 02:21:17;;;;;;;10.50;5.80;;;;;;;10.39;82.03;100374.28;5087837;27;21083;-59
2022/06/21 02:23:45;;;;;;;9.30;5.03;;;;;;;10.31;81.28;100374.91;5095401;28;20470;-59
2022/06/21 02:26:12;;;;;;;11.00;5.87;;;;;;;10.28;81.72;100380.53;5091321;27;20510;-59
2022/06/21 02:28:39;;;;;;;6.90;4.20;;;;;;;10.36;81.82;100383.41;5098026;28;20464;-59
2022/06/21 02:31:07;;;;;;;5.73;4.70;;;;;;;10.43;81.72;100370.34;5099044;27;20556;-59
2022/06/21 02:33:35;;;;;;;8.03;5.10;;;;;;;10.46;81.60;100370.06;5082086;28;20483;-59
2022/06/21 02:36:04;;;;;;;7.50;4.80;;;;;;;10.44;81.45;100364.03;5066676;28;20551;-61
2022/06/21 02:38:34;;;;;;;10.63;5.00;;;;;;;10.44;81.54;100358.69;5094717;28;20994;-60
2022/06/21 02:41:04;;;;;;;6.23;4.57;;;;;;;10.41;81.45;100354.44;5092219;28;20506;-59
2022/06/21 02:43:34;;;;;;;5.63;4.37;;;;;;;10.43;81.17;100368.50;5079635;28;20498;-61
2022/06/21 02:46:03;;;;;;;8.20;4.40;;;;;;;10.31;81.66;100358.88;5085430;28;20578;-61
2022/06/21 02:48:37;;;;;;;6.40;4.50;;;;;;;10.49;80.19;100348.41;5098712;28;20680;-59
2022/06/21 02:51:10;;;;;;;5.73;4.13;;;;;;;10.25;80.34;100352.25;5097992;28;20466;-59
2022/06/21 02:53:40;;;;;;;7.40;4.87;;;;;;;10.16;80.55;100351.25;5091875;28;20517;-59
2022/06/21 02:56:10;;;;;;;8.47;4.57;;;;;;;10.08;80.96;100352.91;5086934;28;20502;-59
2022/06/21 02:58:39;;;;;;;8.23;4.60;;;;;;;10.01;80.83;100357.94;5099343;28;20515;-59
2022/06/21 03:01:12;;;;;;;7.90;5.20;;;;;;;9.98;80.50;100364.41;5098511;28;20482;-59
2022/06/21 03:03:38;;;;;;;5.13;4.63;;;;;;;10.02;80.40;100351.63;5081854;28;20884;-59
2022/06/21 03:06:08;;;;;;;6.93;5.63;;;;;;;9.90;80.40;100352.69;5087052;28;20471;-59
2022/06/21 03:08:36;;;;;;;6.97;4.43;;;;;;;9.92;81.00;100338.22;5098296;28;20458;-59
2022/06/21 03:11:02;;;;;;;6.97;4.40;;;;;;;9.99;81.08;100339.38;5098627;28;20463;-59
2022/06/21 03:13:33;;;;;;;7.17;5.10;;;;;;;10.01;81.24;100341.91;5091507;28;20491;-59
2022/06/21 03:16:02;;;;;;;8.53;5.20;;;;;;;9.98;81.27;100351.03;5086133;28;20474;-60
2022/06/21 03:18:33;;;;;;;6.97;4.43;;;;;;;10.08;81.13;100345.72;5098485;28;20482;-60
2022/06/21 03:21:03;;;;;;;4.73;4.20;;;;;;;10.18;80.87;100346.59;5097684;28;20490;-60
2022/06/21 03:23:32;;;;;;;9.20;4.50;;;;;;;10.38;80.52;100348.53;5099097;28;20471;-58
2022/06/21 03:26:00;;;;;;;7.43;5.07;;;;;;;11.59;78.02;100345.41;5098845;28;20467;-58
2022/06/21 03:28:33;;;;;;;5.80;4.40;;;;;;;12.50;73.39;100336.75;5099103;28;20620;-59
2022/06/21 03:31:07;;;;;;;6.43;4.80;;;;;;;13.30;68.72;100341.34;5098689;28;20607;-59
2022/06/21 03:33:36;;;;;;;6.20;4.57;;;;;;;13.83;65.04;100340.34;5099231;28;20545;-59
2022/06/21 03:36:03;;;;;;;5.57;3.60;;;;;;;14.18;64.25;100349.25;5100821;28;20529;-60
2022/06/21 03:38:32;;;;;;;8.17;4.87;;;;;;;15.12;60.70;100350.03;5103097;28;20446;-59
2022/06/21 03:43:54;;;;;;;4.00;3.40;;;;;;;16.60;54.67;100344.25;5077621;28;20479;-60
2022/06/21 03:46:24;;;;;;;5.90;3.70;;;;;;;17.47;52.04;100343.13;5101463;28;20506;-59
2022/06/21 03:48:55;;;;;;;6.37;3.20;;;;;;;17.88;50.29;100345.47;5102098;28;20453;-59
2022/06/21 03:51:26;;;;;;;4.07;2.80;;;;;;;18.35;49.23;100348.75;5102132;28;20523;-60
2022/06/21 03:53:57;;;;;;;5.60;3.00;;;;;;;18.79;47.57;100356.78;5102227;28;20455;-59
2022/06/21 03:56:27;;;;;;;7.13;3.13;;;;;;;19.14;46.83;100365.09;5102553;27;20505;-60
2022/06/21 03:59:01;;;;;;;5.60;2.70;;;;;;;19.42;45.63;100361.56;5092323;28;20455;-59
2022/06/21 04:01:37;;;;;;;2.57;2.20;;;;;;;19.94;44.93;100370.31;5092506;28;20478;-60
2022/06/21 04:04:09;;;;;;;4.60;2.57;;;;;;;20.34;43.68;100372.44;5102632;28;20474;-59
2022/06/21 04:06:42;;;;;;;5.03;2.40;;;;;;;20.75;42.62;100375.13;5102007;28;20558;-59
2022/06/21 04:09:17;;;;;;;3.70;2.40;;;;;;;20.91;41.97;100379.34;5102226;28;20920;-60
2022/06/21 04:11:46;;;;;;;2.40;1.87;;;;;;;20.30;43.10;100389.13;5101804;28;20498;-61
2022/06/21 04:14:19;;;;;;;3.90;3.30;;;;;;;20.71;42.07;100384.75;5089396;28;20439;-61
2022/06/21 04:16:50;;;;;;;4.17;2.37;;;;;;;20.32;43.02;100384.31;5094763;28;20874;-59
2022/06/21 04:19:21;;;;;;;5.70;3.00;;;;;;;20.69;42.17;100389.50;5101998;28;20482;-59
2022/06/21 04:21:51;;;;;;;4.80;2.73;;;;;;;20.85;41.94;100388.34;5101805;28;20474;-60
2022/06/21 04:24:25;;;;;;;5.57;3.30;;;;;;;20.24;43.88;100389.94;5102056;28;20495;-60
2022/06/21 04:26:57;;;;;;;7.93;2.77;;;;;;;21.70;40.91;100385.09;5098944;28;20523;-60
2022/06/21 04:29:28;;;;;;;4.30;2.47;;;;;;;20.92;42.13;100389.19;5100917;28;20800;-59
2022/06/21 04:31:58;;;;;;;5.20;2.53;;;;;;;21.19;41.68;100378.34;5097810;28;20531;-59
2022/06/21 04:34:28;;;;;;;3.13;2.27;;;;;;;21.19;42.11;100378.34;5101153;28;20506;-59
2022/06/21 04:36:59;;;;;;;4.40;2.40;;;;;;;22.15;40.51;100396.09;5100991;28;20494;-60
2022/06/21 04:39:32;;;;;;;5.30;2.33;;;;;;;21.08;41.94;100390.69;5101059;28;20447;-60
2022/06/21 04:42:02;;;;;;;3.00;2.13;;;;;;;21.46;41.05;100387.41;5100241;27;21039;-60
2022/06/21 04:44:32;;;;;;;3.93;2.23;;;;;;;21.48;42.12;100387.22;5101044;28;20467;-60
2022/06/21 04:47:02;;;;;;;5.90;2.47;;;;;;;20.69;43.53;100386.78;5100122;27;20866;-59
2022/06/21 04:49:32;;;;;;;6.13;2.40;;;;;;;20.85;45.37;100388.34;5101221;28;21032;-59
2022/06/21 04:52:02;;;;;;;8.17;3.47;;;;;;;21.42;43.07;100392.41;5100904;28;20499;-59
2022/06/21 04:54:33;;;;;;;6.60;3.03;;;;;;;21.20;43.09;100390.91;5101087;28;20470;-59
2022/06/21 04:57:04;;;;;;;4.23;2.63;;;;;;;22.29;40.89;100394.22;5094866;28;20514;-60
2022/06/21 04:59:36;;;;;;;6.77;2.67;;;;;;;22.43;40.83;100400.44;5101632;28;20486;-59
2022/06/21 05:02:04;;;;;;;6.03;2.57;;;;;;;22.47;40.78;100399.00;5099784;28;20546;-59
2022/06/21 05:04:33;;;;;;;6.70;2.73;;;;;;;22.57;40.73;100402.09;5101132;28;20918;-59
2022/06/21 05:07:02;;;;;;;7.87;2.90;;;;;;;21.68;42.06;100393.44;5101115;27;20834;-59
2022/06/21 05:09:32;;;;;;;9.63;3.40;;;;;;;21.30;43.72;100395.94;5098228;28;21024;-59
2022/06/21 05:12:02;;;;;;;7.90;2.60;;;;;;;21.14;44.61;100394.44;5081690;28;20472;-59
2022/06/21 05:14:32;;;;;;;5.90;2.40;;;;;;;22.39;41.46;100402.78;5095766;28;20462;-59
2022/06/21 05:16:59;;;;;;;7.33;2.00;;;;;;;22.99;40.85;100404.41;5093582;28;20507;-60
2022/06/21 05:19:29;;;;;;;9.20;3.40;;;;;;;23.26;39.78;100408.66;5099755;28;20465;-60
2022/06/21 05:21:58;;;;;;;9.50;2.03;;;;;;;21.96;42.98;100405.97;5099460;28;20526;-60
2022/06/21 05:24:25;;;;;;;7.67;2.10;;;;;;;23.31;40.36;100400.66;5100777;28;20495;-60
2022/06/21 05:27:01;;;;;;;7.90;1.90;;;;;;;22.04;42.45;100402.22;5100273;28;20543;-60
2022/06/21 05:29:32;;;;;;;9.90;2.00;;;;;;;22.09;42.57;100410.59;5100417;28;20466;-60
2022/06/21 05:32:01;;;;;;;7.07;2.23;;;;;;;22.53;41.90;100409.00;5088853;28;20542;-60
2022/06/21 05:34:30;;;;;;;4.67;2.10;;;;;;;23.83;39.42;100411.38;5080296;28;20472;-60
2022/06/21 05:37:00;;;;;;;6.43;2.80;;;;;;;22.04;42.32;100415.84;5079414;28;20495;-60
2022/06/21 05:39:30;;;;;;;7.83;2.50;;;;;;;23.08;40.01;100414.03;5084686;28;20491;-60
2022/06/21 05:42:02;;;;;;;7.73;2.50;;;;;;;22.56;41.05;100412.13;5087735;28;20471;-60
2022/06/21 05:44:34;;;;;;;6.60;2.30;;;;;;;23.43;39.91;100416.31;5080143;28;20849;-60
2022/06/21 05:47:04;;;;;;;6.30;2.10;;;;;;;23.24;40.26;100413.50;5078495;28;20500;-59
2022/06/21 05:49:33;;;;;;;6.80;2.20;;;;;;;24.49;37.02;100416.38;5094887;28;20491;-60
2022/06/21 05:52:01;;;;;;;7.80;2.57;;;;;;;24.23;37.97;100421.06;5099223;28;20479;-60
2022/06/21 05:54:32;;;;;;;5.67;2.03;;;;;;;23.16;39.04;100412.91;5100969;28;20451;-60
2022/06/21 05:57:03;;;;;;;7.00;2.30;;;;;;;23.15;39.86;100412.09;5099277;28;20485;-60
2022/06/21 05:59:29;;;;;;;6.50;2.27;;;;;;;24.36;37.27;100410.00;5081198;28;20466;-60
2022/06/21 06:02:01;;;;;;;7.13;2.17;;;;;;;23.88;38.01;100408.78;5079019;28;20647;-60
2022/06/21 06:04:31;;;;;;;8.03;2.77;;;;;;;23.54;38.17;100412.88;5083408;28;20516;-60
2022/06/21 06:06:59;;;;;;;9.03;2.97;;;;;;;21.59;42.95;100409.16;5088143;27;20551;-60
2022/06/21 06:09:28;;;;;;;8.87;3.10;;;;;;;21.85;43.71;100409.38;5091636;28;20475;-59
2022/06/21 06:12:01;;;;;;;6.40;2.93;;;;;;;20.89;44.72;100403.19;5097193;28;20490;-60
2022/06/21 06:14:35;;;;;;;7.80;2.40;;;;;;;21.13;43.89;100404.50;5086558;28;20434;-60
2022/06/21 06:17:05;;;;;;;10.63;2.50;;;;;;;18.80;49.78;100414.50;5089272;28;20502;-59
2022/06/21 06:19:36;;;;;;;7.37;3.20;;;;;;;18.27;52.66;100405.72;5090875;28;20504;-59
2022/06/21 06:22:14;;;;;;;8.47;3.20;;;;;;;18.00;53.76;100417.00;5096938;27;20577;-59
2022/06/21 06:24:46;;;;;;;8.33;2.90;;;;;;;17.81;55.03;100415.63;5099250;28;20496;-59
2022/06/21 06:27:25;;;;;;;10.03;2.70;;;;;;;17.88;55.82;100407.66;5099170;28;20682;-59
2022/06/21 06:29:55;;;;;;;8.13;2.70;;;;;;;17.59;55.79;100414.66;5099122;28;20479;-59
2022/06/21 06:32:25;;;;;;;5.73;3.00;;;;;;;17.31;56.53;100407.09;5098606;28;20490;-59
2022/06/21 06:34:54;;;;;;;7.50;2.50;;;;;;;17.52;56.26;100410.16;5099002;28;20478;-59
2022/06/21 06:37:22;;;;;;;5.70;2.13;;;;;;;16.47;58.46;100404.19;5098683;27;20475;-59
2022/06/21 06:39:49;;;;;;;9.60;2.80;;;;;;;16.68;58.82;100400.06;5099215;28;20489;-59
2022/06/21 06:42:17;;;;;;;9.37;3.30;;;;;;;16.71;58.48;100405.09;5098730;28;20482;-59
2022/06/21 06:44:50;;;;;;;15.00;3.07;;;;;;;17.46;57.67;100400.91;5098814;28;20531;-59
2022/06/21 06:47:25;;;;;;;7.00;2.40;;;;;;;18.89;52.82;100396.31;5097930;28;20471;-59
2022/06/21 06:49:55;;;;;;;9.93;4.20;;;;;;;17.88;54.19;100411.19;5099042;28;20450;-59
2022/06/21 06:52:24;;;;;;;10.97;3.07;;;;;;;18.12;53.64;100408.41;5098745;28;20505;-59
2022/06/21 06:54:55;;;;;;;20.50;4.17;;;;;;;18.34;53.65;100404.75;5098779;28;20431;-59
2022/06/21 06:57:28;;;;;;;13.47;4.00;;;;;;;19.57;50.66;100408.44;5098469;28;20498;-59
2022/06/21 06:59:56;;;;;;;7.83;2.97;;;;;;;21.61;45.83;100403.50;5099041;28;20450;-60
2022/06/21 07:02:26;;;;;;;6.90;3.00;;;;;;;23.01;41.38;100413.19;5098012;28;20474;-61
2022/06/21 07:05:02;;;;;;;6.20;2.53;;;;;;;25.13;36.65;100419.56;5098397;28;20927;-61
2022/06/21 07:07:35;;;;;;;9.63;3.20;;;;;;;25.56;34.94;100418.50;5099917;28;20515;-61
2022/06/21 07:10:05;;;;;;;10.43;2.80;;;;;;;26.76;33.25;100415.47;5102060;28;20454;-61
2022/06/21 07:12:32;;;;;;;6.30;2.40;;;;;;;25.40;33.79;100420.03;5091893;28;20783;-61
2022/06/21 07:14:58;;;;;;;6.70;2.10;;;;;;;27.46;30.72;100414.28;5082337;28;20471;-61
2022/06/21 07:17:32;;;;;;;5.13;1.90;;;;;;;27.36;30.32;100417.72;5081212;28;20510;-60
2022/06/21 07:20:00;;;;;;;8.47;2.73;;;;;;;25.78;32.63;100412.44;5082255;28;20512;-60
2022/06/21 07:22:28;;;;;;;7.30;2.10;;;;;;;26.58;32.64;100416.44;5082023;28;20480;-60
2022/06/21 07:24:59;;;;;;;6.07;2.27;;;;;;;25.70;33.95;100414.47;5082447;28;20525;-60
2022/06/21 07:27:28;;;;;;;4.50;2.07;;;;;;;26.61;32.86;100407.72;5081662;28;20515;-59
2022/06/21 07:30:00;;;;;;;8.43;1.90;;;;;;;27.17;31.47;100417.06;5081903;28;20514;-60
2022/06/21 07:32:31;;;;;;;5.83;2.20;;;;;;;26.64;32.63;100415.50;5081539;28;20472;-59
2022/06/21 07:35:01;;;;;;;6.97;2.30;;;;;;;24.56;34.01;100419.88;5081332;28;20471;-60
2022/06/21 07:37:31;;;;;;;6.70;2.30;;;;;;;26.76;30.54;100415.47;5081909;28;20484;-61
2022/06/21 07:40:01;;;;;;;4.83;2.07;;;;;;;26.39;30.89;100411.13;5091165;28;20478;-60
2022/06/21 07:42:31;;;;;;;7.20;2.10;;;;;;;25.74;32.55;100420.28;5100822;27;20527;-60
2022/06/21 07:45:01;;;;;;;6.93;1.60;;;;;;;25.98;31.92;100428.56;5101660;28;20509;-60
2022/06/21 07:47:36;;;;;;;5.20;1.83;;;;;;;27.56;29.08;100430.13;5088264;27;20484;-60
2022/06/21 07:50:09;;;;;;;6.97;2.00;;;;;;;25.93;32.44;100415.53;5101661;28;20802;-60
2022/06/21 07:52:39;;;;;;;5.77;2.20;;;;;;;26.73;29.78;100415.94;5101710;28;20458;-60
2022/06/21 07:55:13;;;;;;;8.77;2.30;;;;;;;25.68;31.89;100410.31;5102156;27;20427;-60
2022/06/21 07:57:41;;;;;;;6.30;2.07;;;;;;;27.73;30.15;100414.47;5101397;28;20445;-60
2022/06/21 08:00:15;;;;;;;5.40;2.30;;;;;;;29.14;26.82;100405.03;5101810;28;20451;-60
2022/06/21 08:08:22;;;;;;;7.57;2.23;;;;;;;26.74;31.71;100404.75;5102599;28;20426;-61
2022/06/21 08:10:52;;;;;;;6.00;2.00;;;;;;;26.36;31.23;100406.13;5100121;27;20983;-60
2022/06/21 08:13:19;;;;;;;9.70;2.27;;;;;;;26.84;30.56;100406.84;5101130;28;20443;-61
2022/06/21 08:15:49;;;;;;;6.27;2.10;;;;;;;26.79;30.90;100404.84;5101234;27;20463;-60
2022/06/21 08:18:22;;;;;;;5.43;2.27;;;;;;;26.50;31.54;100414.91;5101566;28;20484;-61
2022/06/21 08:20:57;;;;;;;6.37;1.90;;;;;;;27.29;30.31;100407.97;5099683;27;20497;-61
2022/06/21 08:23:30;;;;;;;12.37;2.60;;;;;;;25.48;32.59;100407.88;5101230;28;20475;-60
2022/06/21 08:26:03;;;;;;;7.40;2.33;;;;;;;26.40;31.53;100409.22;5100973;27;20562;-61
2022/06/21 08:28:35;;;;;;;11.27;3.00;;;;;;;27.52;30.21;100401.50;5102133;28;20485;-60
2022/06/21 08:31:09;;;;;;;7.00;2.40;;;;;;;26.59;30.61;100396.16;5101526;27;20504;-60
2022/06/21 08:33:42;;;;;;;4.33;1.77;;;;;;;26.81;29.54;100393.63;5099886;28;20553;-60
2022/06/21 08:36:13;;;;;;;4.80;1.77;;;;;;;27.06;29.33;100393.25;5100805;27;20475;-60
2022/06/21 08:38:45;;;;;;;5.40;1.80;;;;;;;27.84;28.43;100392.66;5101452;28;20431;-60
2022/06/21 08:41:55;;;;;;;6.37;2.17;;;;;;;25.40;33.54;100389.91;5098839;27;20466;-59
2022/06/21 08:44:44;;;;;;;7.37;2.40;;;;;;;25.59;32.31;100378.84;5101920;28;20454;-60
2022/06/21 08:47:28;;;;;;;4.90;2.00;;;;;;;26.48;30.93;100379.50;5099260;27;20830;-59
2022/06/21 08:50:19;;;;;;;7.77;2.30;;;;;;;24.61;33.70;100376.28;5100904;28;20458;-60
2022/06/21 08:53:04;;;;;;;6.37;2.00;;;;;;;26.26;31.92;100370.28;5098181;28;20517;-59
2022/06/21 08:55:37;;;;;;;4.60;1.40;;;;;;;26.36;31.30;100361.44;5099319;28;20986;-60
2022/06/21 08:58:14;;;;;;;5.60;1.87;;;;;;;27.26;28.33;100375.50;5101391;28;20463;-59
2022/06/21 09:00:47;;;;;;;5.63;1.90;;;;;;;27.53;27.10;100371.06;5100674;28;21132;-59
2022/06/21 09:03:38;;;;;;;7.60;1.87;;;;;;;27.55;27.32;100368.03;5099870;28;20470;-59
2022/06/21 09:06:14;;;;;;;5.03;1.70;;;;;;;27.42;27.04;100374.69;5100783;28;20541;-59
2022/06/21 09:08:52;;;;;;;4.97;1.73;;;;;;;27.00;27.87;100375.88;5101257;28;20427;-60
2022/06/21 09:11:28;;;;;;;5.47;1.70;;;;;;;26.19;29.59;100369.56;5099093;27;20466;-61
2022/06/21 09:14:07;;;;;;;3.97;1.40;;;;;;;25.91;32.86;100358.25;5100859;28;20843;-61
2022/06/21 09:16:40;;;;;;;3.97;1.50;;;;;;;27.24;29.74;100364.78;5099619;27;20470;-60
2022/06/21 09:19:16;;;;;;;4.40;1.90;;;;;;;27.48;29.18;100365.47;5100603;28;20469;-61
2022/06/21 09:21:51;;;;;;;6.27;2.10;;;;;;;26.67;30.44;100357.44;5099962;27;20566;-61
2022/06/21 09:24:29;;;;;;;8.40;2.13;;;;;;;27.14;30.83;100361.84;5100484;28;20434;-60
2022/06/21 09:27:04;;;;;;;6.07;2.00;;;;;;;26.65;30.97;100360.41;5099511;27;20474;-60
2022/06/21 09:29:34;;;;;;;5.80;2.20;;;;;;;26.30;31.16;100353.09;5100614;28;20540;-60
2022/06/21 09:32:13;;;;;;;5.00;1.87;;;;;;;27.24;28.77;100353.78;5099617;27;20477;-60
2022/06/21 09:34:43;;;;;;;7.80;2.13;;;;;;;27.20;29.24;100333.38;5099452;28;20495;-60
2022/06/21 09:37:23;;;;;;;3.60;1.70;;;;;;;27.00;30.69;100331.16;5100001;27;20479;-60
2022/06/21 09:39:56;;;;;;;7.07;2.50;;;;;;;26.68;31.40;100335.25;5100170;28;20869;-60
2022/06/21 09:42:29;;;;;;;8.10;1.83;;;;;;;28.25;28.89;100338.28;5099705;27;20479;-60
2022/06/21 09:45:06;;;;;;;6.73;2.43;;;;;;;27.51;28.15;100334.75;5100240;28;20436;-60
2022/06/21 09:47:48;;;;;;;6.03;1.80;;;;;;;27.67;29.13;100333.09;5096306;28;20477;-61
2022/06/21 09:50:21;;;;;;;5.40;1.90;;;;;;;26.62;29.09;100333.47;5100379;27;20466;-60
2022/06/21 09:52:57;;;;;;;8.43;1.67;;;;;;;27.14;28.67;100327.00;5099965;28;20466;-61
2022/06/21 09:55:29;;;;;;;5.93;1.70;;;;;;;28.00;28.07;100323.09;5099676;27;20429;-61
2022/06/21 09:57:59;;;;;;;5.27;1.67;;;;;;;28.06;26.42;100319.34;5100968;28;20431;-61
2022/06/21 10:00:42;;;;;;;4.57;1.57;;;;;;;28.28;26.15;100324.00;5100555;28;20451;-61
2022/06/21 10:03:19;;;;;;;9.00;2.00;;;;;;;27.16;28.46;100324.81;5099744;28;20695;-60
2022/06/21 10:05:52;;;;;;;6.10;1.70;;;;;;;27.58;27.83;100318.91;5083150;27;20475;-60
2022/06/21 10:08:33;;;;;;;7.73;1.90;;;;;;;27.40;27.33;100308.22;5100218;28;20483;-61
2022/06/21 10:11:08;;;;;;;5.20;1.70;;;;;;;27.82;27.26;100306.91;5096751;28;20481;-60
2022/06/21 10:14:07;;;;;;;4.33;1.67;;;;;;;26.87;28.55;100313.06;5100620;28;20480;-60
2022/06/21 10:16:56;;;;;;;7.50;1.87;;;;;;;25.21;31.72;100308.94;5099583;28;20474;-60
2022/06/21 10:19:31;;;;;;;5.13;1.97;;;;;;;26.46;29.19;100296.69;5099795;28;20474;-60
2022/06/21 10:22:22;;;;;;;7.57;1.67;;;;;;;28.42;27.76;100292.28;5100435;28;20478;-60
2022/06/21 10:25:27;;;;;;;3.60;1.20;;;;;;;28.17;28.84;100301.91;5099010;28;20451;-60
2022/06/21 10:28:13;;;;;;;5.57;1.50;;;;;;;28.26;26.49;100296.78;5072693;28;20503;-61
2022/06/21 10:30:50;;;;;;;5.90;1.90;;;;;;;27.99;27.14;100292.06;5079097;28;20472;-61
2022/06/21 10:33:58;;;;;;;3.33;1.27;;;;;;;27.46;27.17;100287.16;5087709;28;20467;-60
2022/06/21 10:36:42;;;;;;;3.53;1.60;;;;;;;26.78;29.44;100300.84;5080182;28;20475;-61
2022/06/21 10:39:30;;;;;;;2.90;1.37;;;;;;;26.79;28.96;100294.28;5078959;28;20456;-61
2022/06/21 10:45:12;;;;;;;5.70;1.40;;;;;;;25.01;31.28;100285.47;5077410;28;20512;-59
2022/06/21 10:47:55;;;;;;;4.43;1.77;;;;;;;27.04;28.75;100285.66;5077941;28;20982;-60
2022/06/21 10:50:34;;;;;;;5.23;1.67;;;;;;;27.88;27.54;100281.16;5085536;28;20478;-61
2022/06/21 10:53:18;;;;;;;3.20;1.53;;;;;;;26.03;29.98;100281.56;5066889;28;20483;-61
2022/06/21 10:57:09;;;;;;;7.37;2.30;;;;;;;25.04;31.85;100287.75;5077530;28;20467;-60
2022/06/21 10:58:53;;;;;;;5.90;1.33;;;;;;;27.32;29.20;100281.19;5093531;28;20454;-59
2022/06/21 11:01:25;;;;;;;3.83;1.40;;;;;;;26.54;30.16;100276.25;5096913;27;20500;-59
2022/06/21 11:04:30;;;;;;;4.50;1.37;;;;;;;26.89;28.61;100267.03;5099922;28;20454;-59
2022/06/21 11:07:00;;;;;;;5.93;1.80;;;;;;;26.90;29.02;100260.47;5099152;27;20543;-59
2022/06/21 11:09:33;;;;;;;8.13;1.93;;;;;;;25.81;31.02;100256.69;5099344;28;20435;-59
2022/06/21 11:12:52;;;;;;;8.00;2.10;;;;;;;26.85;30.31;100257.63;5098808;27;21033;-59
2022/06/21 11:14:54;;;;;;;6.63;2.03;;;;;;;25.99;30.32;100246.66;5100004;28;20556;-59
2022/06/21 11:17:27;;;;;;;6.07;1.57;;;;;;;25.91;30.55;100247.88;5097215;27;20474;-60
2022/06/21 11:20:00;;;;;;;6.47;1.23;;;;;;;24.00;33.62;100245.03;5100442;28;20480;-59
2022/06/21 11:22:34;;;;;;;4.50;1.90;;;;;;;25.65;31.74;100243.75;5099625;27;20501;-59
2022/06/21 11:25:15;;;;;;;4.37;1.40;;;;;;;26.11;31.38;100240.09;5098584;28;20461;-59
2022/06/21 11:27:49;;;;;;;4.10;1.60;;;;;;;26.20;29.70;100240.53;5099490;28;20516;-59
2022/06/21 11:30:19;;;;;;;7.53;1.80;;;;;;;26.07;30.37;100235.34;5098919;28;20960;-59
2022/06/21 11:33:00;;;;;;;5.20;2.37;;;;;;;26.07;31.18;100227.13;5098828;28;20447;-59
2022/06/21 11:35:31;;;;;;;6.03;1.80;;;;;;;27.12;29.25;100233.09;5099244;28;20481;-59
2022/06/21 11:38:08;;;;;;;5.37;1.73;;;;;;;26.70;29.71;100233.53;5099507;28;20427;-59
2022/06/21 11:40:47;;;;;;;3.17;1.23;;;;;;;26.88;29.47;100237.13;5098874;28;20466;-60
2022/06/21 11:43:25;;;;;;;4.37;1.30;;;;;;;27.24;29.19;100228.34;5099783;28;20533;-60
2022/06/21 11:45:57;;;;;;;5.67;1.60;;;;;;;27.44;29.22;100229.75;5097151;28;20482;-59
2022/06/21 11:48:58;;;;;;;5.27;1.40;;;;;;;26.15;29.98;100237.69;5098881;28;20480;-60
2022/06/21 11:51:36;;;;;;;4.83;1.40;;;;;;;25.61;31.00;100228.88;5099623;28;20505;-60
2022/06/21 11:54:04;;;;;;;2.90;1.43;;;;;;;25.52;30.44;100220.22;5098874;28;20546;-61
2022/06/21 11:56:39;;;;;;;5.93;1.90;;;;;;;25.25;31.09;100215.22;5102695;27;20490;-60
2022/06/21 11:59:18;;;;;;;9.50;1.60;;;;;;;25.75;32.21;100209.19;5103643;28;20435;-60
2022/06/21 12:01:53;;;;;;;8.93;2.57;;;;;;;24.74;32.76;100205.78;5101679;27;20477;-61